createdAt,value
2018-11-25T00:01:05.848Z,69.83
2018-11-25T00:03:33.963Z,59.87
2018-11-25T00:06:02.234Z,71.70
2018-11-25T00:08:30.408Z,63.97
2018-11-25T00:10:58.596Z,63.77
2018-11-25T00:13:26.744Z,65.63
2018-11-25T00:15:54.864Z,71.20
2018-11-25T00:18:23.002Z,65.90
2018-11-25T00:20:51.100Z,68.67
2018-11-25T00:23:19.242Z,67.07
2018-11-25T00:25:47.413Z,70.03
2018-11-25T00:28:15.528Z,69.43
2018-11-25T00:30:43.678Z,71.40
2018-11-25T00:33:11.784Z,64.37
2018-11-25T00:35:39.910Z,62.83
2018-11-25T00:38:08.028Z,55.63
2018-11-25T00:40:36.161Z,58.83
2018-11-25T00:43:04.332Z,55.20
2018-11-25T00:45:32.501Z,49.43
2018-11-25T00:48:00.618Z,55.07
2018-11-25T00:50:28.740Z,54.63
2018-11-25T00:52:56.820Z,56.03
2018-11-25T00:55:24.948Z,55.93
2018-11-25T00:57:53.528Z,56.73
2018-11-25T01:00:21.656Z,56.47
2018-11-25T01:02:50.136Z,55.70
2018-11-25T01:05:18.342Z,58.90
2018-11-25T01:07:46.487Z,56.97
2018-11-25T01:10:15.825Z,56.40
2018-11-25T01:12:44.178Z,56.80
2018-11-25T01:15:12.736Z,49.53
2018-11-25T01:17:40.836Z,57.03
2018-11-25T01:20:09.695Z,59.33
2018-11-25T01:22:37.791Z,58.53
2018-11-25T01:25:06.355Z,54.10
2018-11-25T01:27:34.456Z,53.37
2018-11-25T01:30:02.596Z,52.27
2018-11-25T01:32:30.680Z,53.57
2018-11-25T01:35:01.167Z,56.70
2018-11-25T01:37:26.912Z,50.50
2018-11-25T01:39:55.028Z,53.57
2018-11-25T01:42:23.132Z,55.40
2018-11-25T01:44:51.240Z,53.80
2018-11-25T01:47:19.374Z,52.83
2018-11-25T01:49:47.485Z,51.57
2018-11-25T01:52:15.577Z,54.53
2018-11-25T01:54:43.672Z,52.93
2018-11-25T01:57:11.817Z,49.77
2018-11-25T01:59:39.944Z,51.47
2018-11-25T02:02:08.048Z,55.47
2018-11-25T02:04:36.161Z,53.50
2018-11-25T02:07:04.285Z,52.77
2018-11-25T02:09:32.407Z,56.70
2018-11-25T02:12:00.508Z,54.87
2018-11-25T02:14:28.610Z,50.37
2018-11-25T02:16:56.732Z,56.37
2018-11-25T02:19:24.900Z,53.27
2018-11-25T02:21:53.004Z,56.40
2018-11-25T02:24:21.093Z,55.53
2018-11-25T02:26:49.211Z,50.93
2018-11-25T02:29:17.317Z,56.20
2018-11-25T02:31:45.416Z,61.03
2018-11-25T02:34:13.507Z,55.87
2018-11-25T02:36:41.583Z,58.40
2018-11-25T02:39:09.695Z,57.20
2018-11-25T02:41:37.790Z,61.87
2018-11-25T02:44:05.916Z,64.73
2018-11-25T02:46:34.022Z,63.00
2018-11-25T02:49:02.130Z,59.70
2018-11-25T02:51:30.228Z,60.37
2018-11-25T02:53:58.319Z,55.73
2018-11-25T02:56:26.472Z,58.30
2018-11-25T02:58:54.568Z,55.13
2018-11-25T03:01:22.664Z,53.87
2018-11-25T03:03:50.809Z,48.47
2018-11-25T03:06:18.902Z,49.03
2018-11-25T03:08:47.012Z,48.13
2018-11-25T03:11:15.120Z,58.17
2018-11-25T03:13:43.208Z,51.47
2018-11-25T03:16:11.372Z,57.07
2018-11-25T03:18:39.464Z,56.10
2018-11-25T03:21:07.559Z,52.83
2018-11-25T03:23:35.740Z,54.40
2018-11-25T03:26:03.844Z,52.40
2018-11-25T03:28:32.065Z,52.00
2018-11-25T03:31:00.192Z,48.83
2018-11-25T03:33:28.283Z,54.93
2018-11-25T03:35:56.380Z,50.43
2018-11-25T03:38:24.511Z,51.43
2018-11-25T03:40:52.695Z,49.53
2018-11-25T03:43:20.785Z,47.73
2018-11-25T03:45:48.891Z,54.47
2018-11-25T03:48:16.992Z,51.13
2018-11-25T03:50:45.089Z,53.63
2018-11-25T03:53:13.182Z,49.27
2018-11-25T03:55:41.309Z,42.43
2018-11-25T03:58:09.408Z,42.47
2018-11-25T04:00:37.563Z,42.27
2018-11-25T04:03:05.768Z,40.97
2018-11-25T04:05:33.865Z,42.77
2018-11-25T04:08:01.984Z,45.37
2018-11-25T04:10:30.097Z,42.27
2018-11-25T04:12:58.208Z,39.97
2018-11-25T04:15:26.331Z,45.03
2018-11-25T04:17:54.476Z,43.60
2018-11-25T04:20:22.651Z,42.73
2018-11-25T04:22:50.849Z,45.90
2018-11-25T04:25:19.008Z,51.03
2018-11-25T04:27:47.126Z,54.20
2018-11-25T04:30:15.708Z,62.67
2018-11-25T04:32:44.159Z,52.20
2018-11-25T04:35:12.548Z,56.87
2018-11-25T04:37:40.656Z,55.00
2018-11-25T04:40:09.416Z,60.17
2018-11-25T04:42:37.518Z,57.70
2018-11-25T04:45:06.758Z,63.53
2018-11-25T04:47:34.911Z,58.40
2018-11-25T04:50:03.408Z,64.47
2018-11-25T04:52:31.565Z,71.93
2018-11-25T04:54:59.756Z,61.83
2018-11-25T04:57:27.851Z,66.03
2018-11-25T04:59:56.004Z,69.00
2018-11-25T05:02:24.084Z,68.33
2018-11-25T05:04:52.248Z,69.33
2018-11-25T05:07:20.415Z,65.53
2018-11-25T05:09:49.084Z,71.73
2018-11-25T05:12:17.185Z,75.27
2018-11-25T05:14:45.386Z,75.77
2018-11-25T05:17:13.492Z,76.17
2018-11-25T05:19:41.580Z,72.93
2018-11-25T05:22:09.679Z,78.43
2018-11-25T05:24:37.784Z,82.17
2018-11-25T05:27:06.101Z,77.63
2018-11-25T05:29:34.223Z,78.63
2018-11-25T05:32:02.401Z,87.80
2018-11-25T05:34:30.528Z,77.40
2018-11-25T05:36:58.648Z,88.07
2018-11-25T05:39:26.776Z,84.10
2018-11-25T05:41:54.951Z,81.40
2018-11-25T05:44:23.057Z,82.60
2018-11-25T05:46:51.193Z,91.47
2018-11-25T05:49:19.292Z,84.60
2018-11-25T05:51:47.389Z,92.47
2018-11-25T05:54:15.502Z,92.13
2018-11-25T05:56:43.596Z,91.63
2018-11-25T05:59:11.684Z,85.97
2018-11-25T06:01:39.844Z,88.57
2018-11-25T06:04:07.944Z,84.47
2018-11-25T06:06:36.120Z,87.40
2018-11-25T06:09:05.900Z,82.67
2018-11-25T06:11:34.060Z,88.83
2018-11-25T06:14:02.180Z,81.67
2018-11-25T06:16:30.320Z,91.33
2018-11-25T06:18:58.429Z,88.47
2018-11-25T06:21:26.541Z,88.20
2018-11-25T06:23:54.776Z,86.07
2018-11-25T06:26:22.871Z,86.53
2018-11-25T06:28:50.957Z,84.37
2018-11-25T06:31:19.053Z,85.93
2018-11-25T06:33:47.143Z,82.30
2018-11-25T06:36:15.240Z,90.73
2018-11-25T06:38:43.373Z,88.87
2018-11-25T06:41:11.485Z,80.07
2018-11-25T06:43:39.584Z,84.07
2018-11-25T06:46:08.591Z,87.90
2018-11-25T06:48:36.704Z,83.03
2018-11-25T06:51:04.839Z,74.23
2018-11-25T06:53:32.948Z,73.80
2018-11-25T06:56:01.131Z,75.27
2018-11-25T06:58:29.276Z,75.43
2018-11-25T07:00:57.370Z,69.77
2018-11-25T07:03:25.471Z,67.30
2018-11-25T07:05:53.577Z,78.17
2018-11-25T07:08:21.677Z,74.23
2018-11-25T07:10:49.791Z,72.03
2018-11-25T07:13:17.892Z,69.10
2018-11-25T07:15:45.991Z,72.20
2018-11-25T07:18:14.100Z,74.43
2018-11-25T07:20:42.236Z,76.13
2018-11-25T07:23:10.384Z,74.50
2018-11-25T07:25:38.480Z,74.27
2018-11-25T07:28:18.089Z,77.50
2018-11-25T07:30:34.705Z,70.07
2018-11-25T07:33:02.788Z,77.00
2018-11-25T07:35:30.896Z,73.27
2018-11-25T07:37:59.033Z,75.23
2018-11-25T07:40:27.138Z,71.73
2018-11-25T07:42:55.239Z,79.23
2018-11-25T07:45:30.098Z,76.13
2018-11-25T07:47:52.128Z,85.20
2018-11-25T07:50:20.228Z,76.17
2018-11-25T07:52:48.560Z,87.60
2018-11-25T07:55:17.963Z,78.17
2018-11-25T07:57:46.236Z,90.57
2018-11-25T08:00:14.834Z,75.83
2018-11-25T08:02:42.987Z,77.03
2018-11-25T08:05:11.757Z,73.73
2018-11-25T08:07:39.891Z,81.40
2018-11-25T08:10:08.796Z,73.10
2018-11-25T08:12:36.881Z,74.97
2018-11-25T08:15:05.642Z,73.63
2018-11-25T08:17:33.785Z,70.73
2018-11-25T08:20:01.889Z,82.00
2018-11-25T08:22:30.001Z,81.03
2018-11-25T08:24:58.095Z,71.43
2018-11-25T08:27:26.208Z,80.30
2018-11-25T08:29:54.312Z,74.20
2018-11-25T08:32:22.396Z,70.20
2018-11-25T08:34:50.490Z,71.97
2018-11-25T08:37:18.592Z,68.33
2018-11-25T08:39:46.713Z,68.17
2018-11-25T08:42:14.931Z,62.80
2018-11-25T08:44:43.162Z,62.10
2018-11-25T08:47:11.309Z,58.73
2018-11-25T08:49:39.677Z,60.90
2018-11-25T08:52:07.783Z,59.17
2018-11-25T08:54:35.936Z,59.20
2018-11-25T08:57:04.084Z,56.53
2018-11-25T08:59:32.198Z,56.70
2018-11-25T09:02:00.338Z,60.33
2018-11-25T09:04:28.455Z,61.13
2018-11-25T09:06:56.581Z,57.53
2018-11-25T09:09:24.736Z,51.30
2018-11-25T09:11:52.848Z,51.47
2018-11-25T09:14:20.948Z,50.57
2018-11-25T09:16:49.072Z,51.93
2018-11-25T09:19:17.253Z,52.90
2018-11-25T09:21:45.379Z,55.23
2018-11-25T09:24:13.513Z,46.30
2018-11-25T09:26:41.683Z,46.50
2018-11-25T09:29:09.812Z,50.10
2018-11-25T09:31:37.946Z,48.87
2018-11-25T09:34:06.067Z,50.03
2018-11-25T09:36:34.168Z,40.13
2018-11-25T09:39:02.288Z,49.30
2018-11-25T09:41:30.448Z,40.97
2018-11-25T09:43:58.566Z,45.20
2018-11-25T09:46:26.693Z,44.60
2018-11-25T09:48:54.826Z,48.83
2018-11-25T09:51:22.947Z,46.57
2018-11-25T09:53:51.078Z,46.50
2018-11-25T09:56:19.181Z,41.03
2018-11-25T09:58:47.308Z,43.97
2018-11-25T10:01:15.428Z,45.10
2018-11-25T10:03:43.553Z,37.80
2018-11-25T10:06:12.900Z,40.60
2018-11-25T10:08:39.923Z,42.47
2018-11-25T10:11:08.072Z,40.83
2018-11-25T10:13:36.176Z,37.10
2018-11-25T10:16:04.339Z,38.37
2018-11-25T10:18:32.484Z,31.27
2018-11-25T10:21:00.584Z,35.80
2018-11-25T10:23:28.741Z,31.53
2018-11-25T10:25:56.925Z,37.70
2018-11-25T10:28:25.149Z,36.17
2018-11-25T10:30:53.278Z,37.87
2018-11-25T10:33:21.407Z,41.00
2018-11-25T10:35:49.528Z,35.17
2018-11-25T10:38:17.719Z,46.30
2018-11-25T10:40:45.837Z,37.53
2018-11-25T10:43:14.023Z,37.23
2018-11-25T10:45:42.241Z,37.90
2018-11-25T10:48:10.472Z,38.47
2018-11-25T10:50:38.616Z,34.13
2018-11-25T10:53:06.818Z,37.90
2018-11-25T10:55:34.948Z,36.37
2018-11-25T10:58:03.104Z,33.77
2018-11-25T11:00:37.119Z,36.40
2018-11-25T11:03:11.708Z,35.83
2018-11-25T11:05:45.238Z,37.83
2018-11-25T11:08:13.363Z,35.70
2018-11-25T11:10:41.600Z,39.57
2018-11-25T11:13:09.817Z,29.93
2018-11-25T11:15:37.978Z,34.00
2018-11-25T11:18:06.527Z,33.57
2018-11-25T11:20:34.733Z,38.50
2018-11-25T11:23:02.863Z,32.57
2018-11-25T11:25:30.980Z,33.77
2018-11-25T11:27:59.136Z,35.40
2018-11-25T11:30:27.261Z,30.77
2018-11-25T11:32:55.352Z,33.87
2018-11-25T11:35:23.525Z,30.17
2018-11-25T11:37:51.620Z,32.53
2018-11-25T11:40:19.784Z,33.33
2018-11-25T11:42:47.885Z,31.20
2018-11-25T11:45:16.045Z,33.13
2018-11-25T11:47:44.684Z,32.70
2018-11-25T11:50:14.621Z,34.07
2018-11-25T11:52:42.719Z,35.60
2018-11-25T11:55:11.480Z,36.83
2018-11-25T11:57:40.165Z,33.17
2018-11-25T12:00:10.120Z,34.53
2018-11-25T12:02:38.258Z,39.70
2018-11-25T12:05:06.435Z,38.40
2018-11-25T12:07:34.600Z,44.40
2018-11-25T12:10:02.700Z,42.37
2018-11-25T12:12:30.844Z,39.40
2018-11-25T12:14:59.554Z,44.10
2018-11-25T12:17:27.703Z,41.03
2018-11-25T12:19:55.795Z,41.97
2018-11-25T12:22:23.900Z,41.60
2018-11-25T12:24:52.118Z,40.20
2018-11-25T12:27:20.271Z,46.53
2018-11-25T12:29:48.404Z,47.13
2018-11-25T12:32:16.607Z,48.13
2018-11-25T12:34:44.785Z,46.10
2018-11-25T12:37:12.977Z,47.73
2018-11-25T12:39:41.252Z,46.83
2018-11-25T12:42:09.420Z,47.87
2018-11-25T12:44:37.581Z,48.30
2018-11-25T12:47:05.742Z,51.97
2018-11-25T12:49:33.873Z,45.20
2018-11-25T12:52:02.001Z,45.77
2018-11-25T12:54:30.160Z,51.13
2018-11-25T12:56:58.276Z,48.17
2018-11-25T12:59:26.395Z,47.00
2018-11-25T13:01:54.692Z,50.50
2018-11-25T13:04:27.700Z,50.10
2018-11-25T13:06:51.798Z,49.43
2018-11-25T13:09:19.952Z,52.47
2018-11-25T13:11:52.306Z,51.13
2018-11-25T13:14:16.689Z,53.50
2018-11-25T13:16:44.817Z,56.53
2018-11-25T13:19:12.964Z,57.23
2018-11-25T13:21:41.071Z,56.13
2018-11-25T13:24:09.320Z,61.50
2018-11-25T13:26:37.410Z,56.80
2018-11-25T13:29:06.469Z,64.00
2018-11-25T13:31:34.585Z,66.70
2018-11-25T13:34:02.896Z,65.20
2018-11-25T13:36:31.115Z,68.13
2018-11-25T13:38:59.761Z,72.67
2018-11-25T13:41:27.936Z,66.40
2018-11-25T13:43:56.045Z,78.50
2018-11-25T13:46:24.231Z,78.37
2018-11-25T13:48:52.372Z,74.73
2018-11-25T13:51:20.496Z,83.67
2018-11-25T13:53:48.629Z,68.47
2018-11-25T13:56:17.317Z,77.10
2018-11-25T13:58:45.436Z,73.80
2018-11-25T14:01:13.566Z,79.13
2018-11-25T14:03:42.348Z,74.53
2018-11-25T14:06:12.446Z,78.63
2018-11-25T14:08:40.549Z,71.07
2018-11-25T14:11:10.476Z,81.00
2018-11-25T14:13:38.599Z,79.60
2018-11-25T14:16:08.294Z,76.27
2018-11-25T14:18:36.424Z,71.37
2018-11-25T14:21:05.023Z,68.60
2018-11-25T14:23:33.209Z,72.43
2018-11-25T14:26:02.848Z,72.43
2018-11-25T14:28:30.962Z,72.70
2018-11-25T14:30:59.077Z,70.30
2018-11-25T14:33:27.199Z,74.87
2018-11-25T14:35:55.385Z,68.27
2018-11-25T14:38:23.495Z,64.07
2018-11-25T14:40:51.657Z,61.43
2018-11-25T14:43:20.112Z,66.23
2018-11-25T14:45:48.966Z,67.90
2018-11-25T14:48:17.084Z,65.70
2018-11-25T14:50:45.206Z,63.37
2018-11-25T14:53:13.341Z,72.63
2018-11-25T14:55:41.479Z,73.13
2018-11-25T14:58:09.682Z,68.63
2018-11-25T15:00:37.808Z,68.53
2018-11-25T15:03:06.553Z,70.03
2018-11-25T15:05:38.396Z,68.27
2018-11-25T15:08:07.220Z,66.00
2018-11-25T15:10:35.378Z,68.23
2018-11-25T15:13:03.512Z,66.47
2018-11-25T15:15:32.019Z,70.80
2018-11-25T15:18:00.209Z,66.67
2018-11-25T15:20:28.396Z,67.30
2018-11-25T15:22:57.591Z,66.93
2018-11-25T15:25:26.844Z,72.87
2018-11-25T15:27:55.047Z,73.37
2018-11-25T15:30:23.200Z,72.43
2018-11-25T15:32:51.465Z,68.97
2018-11-25T15:35:19.691Z,70.13
2018-11-25T15:37:48.671Z,75.67
2018-11-25T15:40:18.804Z,71.17
2018-11-25T15:42:46.980Z,66.30
2018-11-25T15:45:15.142Z,74.87
2018-11-25T15:47:44.644Z,67.90
2018-11-25T15:50:13.874Z,69.47
2018-11-25T15:52:42.043Z,75.00
2018-11-25T15:55:11.138Z,71.37
2018-11-25T15:57:39.269Z,71.50
2018-11-25T16:00:09.543Z,71.17
2018-11-25T16:02:38.893Z,70.10
2018-11-25T16:05:07.086Z,71.57
2018-11-25T16:07:35.193Z,70.53
2018-11-25T16:10:03.405Z,68.07
2018-11-25T16:12:31.644Z,72.77
2018-11-25T16:14:59.812Z,79.33
2018-11-25T16:17:27.987Z,63.87
2018-11-25T16:19:56.140Z,66.50
2018-11-25T16:22:24.435Z,63.47
2018-11-25T16:24:52.679Z,68.63
2018-11-25T16:27:21.125Z,70.93
2018-11-25T16:29:49.304Z,62.90
2018-11-25T16:32:17.489Z,58.93
2018-11-25T16:34:45.612Z,63.67
2018-11-25T16:37:13.729Z,58.47
2018-11-25T16:39:41.842Z,56.63
2018-11-25T16:42:09.976Z,56.73
2018-11-25T16:44:38.101Z,54.27
2018-11-25T16:47:06.302Z,55.53
2018-11-25T16:49:34.976Z,55.60
2018-11-25T16:52:03.152Z,56.80
2018-11-25T16:54:31.299Z,60.03
2018-11-25T16:56:59.434Z,52.70
2018-11-25T16:59:27.552Z,63.40
2018-11-25T17:01:55.708Z,57.93
2018-11-25T17:04:23.918Z,55.67
2018-11-25T17:06:52.367Z,61.87
2018-11-25T17:09:20.456Z,55.53
2018-11-25T17:11:48.613Z,61.67
2018-11-25T17:14:16.814Z,55.50
2018-11-25T17:16:44.984Z,60.47
2018-11-25T17:19:13.121Z,57.70
2018-11-25T17:21:41.296Z,54.40
2018-11-25T17:24:09.406Z,56.47
2018-11-25T17:26:37.531Z,61.17
2018-11-25T17:29:05.689Z,62.23
2018-11-25T17:31:33.806Z,67.30
2018-11-25T17:34:01.958Z,63.23
2018-11-25T17:36:30.100Z,65.73
2018-11-25T17:38:58.243Z,64.77
2018-11-25T17:41:26.359Z,72.77
2018-11-25T17:43:54.548Z,73.20
2018-11-25T17:46:22.662Z,66.77
2018-11-25T17:48:50.860Z,72.30
2018-11-25T17:51:19.015Z,76.17
2018-11-25T17:53:47.220Z,75.17
2018-11-25T17:56:15.363Z,70.77
2018-11-25T17:58:43.509Z,77.07
2018-11-25T18:01:11.629Z,76.40
2018-11-25T18:03:39.740Z,82.10
2018-11-25T18:06:07.913Z,84.27
2018-11-25T18:08:36.024Z,91.47
2018-11-25T18:11:04.147Z,93.60
2018-11-25T18:13:33.279Z,85.33
2018-11-25T18:16:02.051Z,83.20
2018-11-25T18:18:46.033Z,88.43
2018-11-25T18:21:15.218Z,92.43
2018-11-25T18:23:43.505Z,91.03
2018-11-25T18:26:11.602Z,93.13
2018-11-25T18:28:39.728Z,95.83
2018-11-25T18:31:08.314Z,102.23
2018-11-25T18:33:36.495Z,88.50
2018-11-25T18:36:04.649Z,92.73
2018-11-25T18:38:32.826Z,96.03
2018-11-25T18:41:01.015Z,102.00
2018-11-25T18:43:29.180Z,102.57
2018-11-25T18:45:59.412Z,103.50
2018-11-25T18:48:25.528Z,99.10
2018-11-25T18:50:53.717Z,99.93
2018-11-25T18:53:21.853Z,109.20
2018-11-25T18:55:49.441Z,98.43
2018-11-25T18:58:17.604Z,101.40
2018-11-25T19:00:47.146Z,107.30
2018-11-25T19:03:15.279Z,96.97
2018-11-25T19:05:43.396Z,96.30
2018-11-25T19:08:12.392Z,109.17
2018-11-25T19:10:40.536Z,98.37
2018-11-25T19:13:08.733Z,107.07
2018-11-25T19:15:36.892Z,107.33
2018-11-25T19:18:05.407Z,99.63
2018-11-25T19:20:33.523Z,108.73
2018-11-25T19:23:01.661Z,91.70
2018-11-25T19:25:29.785Z,95.87
2018-11-25T19:27:57.940Z,96.17
2018-11-25T19:30:27.011Z,94.50
2018-11-25T19:32:54.257Z,99.73
2018-11-25T19:35:22.676Z,102.13
2018-11-25T19:37:51.357Z,101.73
2018-11-25T19:40:23.176Z,95.13
2018-11-25T19:42:51.370Z,105.03
2018-11-25T19:45:21.113Z,106.50
2018-11-25T19:47:49.366Z,110.83
2018-11-25T19:50:34.849Z,111.13
2018-11-25T19:53:02.981Z,114.80
2018-11-25T19:55:31.119Z,109.20
2018-11-25T19:57:59.243Z,117.50
2018-11-25T20:00:27.678Z,106.30
2018-11-25T20:02:55.824Z,108.17
2018-11-25T20:05:23.952Z,117.67
2018-11-25T20:07:52.088Z,110.70
2018-11-25T20:10:20.873Z,119.47
2018-11-25T20:12:50.572Z,107.13
2018-11-25T20:15:19.379Z,111.53
2018-11-25T20:17:54.015Z,114.47
2018-11-25T20:20:16.314Z,126.43
2018-11-25T20:22:44.542Z,121.37
2018-11-25T20:25:13.009Z,116.43
2018-11-25T20:27:45.173Z,114.23
2018-11-25T20:30:14.179Z,118.23
2018-11-25T20:32:47.795Z,122.83
2018-11-25T20:35:15.987Z,119.67
2018-11-25T20:38:53.389Z,122.77
2018-11-25T20:41:21.523Z,116.07
2018-11-25T20:43:49.695Z,115.67
2018-11-25T20:46:23.132Z,121.67
2018-11-25T20:48:51.278Z,120.17
2018-11-25T20:51:23.698Z,116.20
2018-11-25T20:53:57.422Z,118.53
2018-11-25T20:56:25.581Z,118.23
2018-11-25T20:58:53.857Z,116.37
2018-11-25T21:01:22.038Z,117.53
2018-11-25T21:03:50.216Z,113.10
2018-11-25T21:06:18.502Z,118.20
2018-11-25T21:08:46.649Z,117.77
2018-11-25T21:11:14.867Z,117.17
2018-11-25T21:13:43.049Z,117.30
2018-11-25T21:16:11.246Z,120.33
2018-11-25T21:18:39.425Z,119.63
2018-11-25T21:21:07.705Z,119.23
2018-11-25T21:23:35.848Z,116.03
2018-11-25T21:26:04.345Z,121.50
2018-11-25T21:28:32.491Z,109.37
2018-11-25T21:31:00.657Z,107.50
2018-11-25T21:33:28.789Z,119.10
2018-11-25T21:35:56.912Z,114.43
2018-11-25T21:38:25.042Z,113.53
2018-11-25T21:40:53.174Z,111.57
2018-11-25T21:43:21.334Z,116.20
2018-11-25T21:45:49.472Z,116.70
2018-11-25T21:48:17.573Z,110.73
2018-11-25T21:50:45.732Z,114.93
2018-11-25T21:53:14.015Z,110.53
2018-11-25T21:55:42.185Z,113.83
2018-11-25T21:58:10.391Z,121.70
2018-11-25T22:00:38.525Z,112.73
2018-11-25T22:03:06.683Z,109.70
2018-11-25T22:05:34.813Z,123.03
2018-11-25T22:08:02.967Z,117.37
2018-11-25T22:10:31.117Z,114.90
2018-11-25T22:12:59.228Z,109.97
2018-11-25T22:15:27.396Z,111.83
2018-11-25T22:17:55.527Z,109.77
2018-11-25T22:20:23.691Z,109.73
2018-11-25T22:22:51.875Z,110.33
2018-11-25T22:25:20.471Z,115.30
2018-11-25T22:27:48.631Z,119.53
2018-11-25T22:30:18.157Z,113.83
2018-11-25T22:32:46.296Z,129.67
2018-11-25T22:35:14.901Z,128.07
2018-11-25T22:37:43.030Z,112.87
2018-11-25T22:40:11.681Z,118.00
2018-11-25T22:42:40.154Z,115.83
2018-11-25T22:45:09.957Z,112.87
2018-11-25T22:47:38.259Z,124.87
2018-11-25T22:50:07.214Z,117.63
2018-11-25T22:52:35.332Z,107.70
2018-11-25T22:55:03.443Z,105.47
2018-11-25T22:57:31.630Z,105.93
2018-11-25T22:59:59.730Z,112.93
2018-11-25T23:02:27.876Z,108.97
2018-11-25T23:06:01.546Z,112.13
2018-11-25T23:08:29.689Z,102.47
2018-11-25T23:10:57.803Z,118.87
2018-11-25T23:13:25.931Z,110.67
2018-11-25T23:15:54.040Z,103.77
2018-11-25T23:18:22.143Z,103.37
2018-11-25T23:20:51.371Z,103.50
2018-11-25T23:23:19.476Z,100.00
2018-11-25T23:25:47.624Z,100.70
2018-11-25T23:28:15.804Z,107.30
2018-11-25T23:30:43.931Z,101.97
2018-11-25T23:33:12.037Z,108.47
2018-11-25T23:35:40.136Z,102.77
2018-11-25T23:38:08.284Z,102.43
2018-11-25T23:40:36.433Z,99.23
2018-11-25T23:43:04.553Z,105.40
2018-11-25T23:45:32.649Z,99.23
2018-11-25T23:48:00.764Z,108.30
2018-11-25T23:50:28.852Z,109.87
2018-11-25T23:52:56.990Z,107.13
2018-11-25T23:55:25.091Z,97.00
2018-11-25T23:57:53.268Z,97.17
